createdAt,value
2022-12-11T00:02:11.661Z,20.10
2022-12-11T00:04:38.252Z,28.00
2022-12-11T00:07:04.792Z,14.60
2022-12-11T00:09:31.544Z,11.30
2022-12-11T00:11:58.052Z,14.00
2022-12-11T00:14:24.557Z,14.40
2022-12-11T00:16:51.098Z,13.50
2022-12-11T00:19:17.593Z,12.10
2022-12-11T00:21:44.138Z,14.80
2022-12-11T00:24:10.680Z,11.20
2022-12-11T00:26:37.247Z,12.90
2022-12-11T00:29:04.165Z,12.00
2022-12-11T00:31:31.352Z,15.90
2022-12-11T00:33:58.072Z,12.80
2022-12-11T00:36:26.667Z,14.10
2022-12-11T00:38:54.233Z,11.80
2022-12-11T00:41:20.966Z,12.20
2022-12-11T00:43:47.915Z,12.80
2022-12-11T00:46:15.062Z,13.60
2022-12-11T00:48:41.791Z,15.30
2022-12-11T00:51:08.581Z,13.30
2022-12-11T00:53:35.069Z,14.40
2022-12-11T00:56:01.512Z,11.70
2022-12-11T00:58:28.486Z,12.40
2022-12-11T01:00:55.239Z,12.90
2022-12-11T01:03:21.861Z,12.50
2022-12-11T01:05:55.761Z,12.60
2022-12-11T01:08:22.457Z,14.00
2022-12-11T01:10:49.088Z,13.70
2022-12-11T01:13:16.210Z,19.50
2022-12-11T01:15:45.517Z,17.00
2022-12-11T01:18:13.803Z,19.30
2022-12-11T01:20:42.113Z,18.20
2022-12-11T01:23:08.590Z,15.60
2022-12-11T01:25:36.011Z,14.20
2022-12-11T01:28:02.736Z,13.20
2022-12-11T01:30:29.257Z,11.90
2022-12-11T01:32:55.742Z,11.60
2022-12-11T01:35:22.661Z,15.10
2022-12-11T01:37:49.495Z,12.00
2022-12-11T01:40:19.487Z,18.20
2022-12-11T01:42:46.492Z,13.90
2022-12-11T01:45:24.683Z,18.20
2022-12-11T01:48:05.326Z,14.10
2022-12-11T01:50:36.743Z,13.40
2022-12-11T01:53:06.145Z,12.90
2022-12-11T01:55:34.422Z,14.00
2022-12-11T01:58:02.480Z,15.10
2022-12-11T02:00:29.011Z,19.00
2022-12-11T02:02:55.483Z,15.50
2022-12-11T02:05:22.210Z,15.50
2022-12-11T02:07:53.911Z,15.00
2022-12-11T02:10:22.077Z,14.10
2022-12-11T02:12:59.010Z,13.70
2022-12-11T02:15:37.977Z,14.60
2022-12-11T02:18:31.435Z,14.20
2022-12-11T02:21:05.735Z,13.30
2022-12-11T02:23:44.482Z,14.40
2022-12-11T02:26:13.916Z,18.40
2022-12-11T02:28:49.335Z,17.10
2022-12-11T02:31:28.019Z,16.20
2022-12-11T02:34:06.992Z,13.70
2022-12-11T02:36:37.816Z,14.80
2022-12-11T02:39:07.648Z,14.50
2022-12-11T02:41:34.801Z,14.20
2022-12-11T02:44:04.160Z,12.50
2022-12-11T02:46:33.823Z,11.70
2022-12-11T02:49:03.002Z,11.60
2022-12-11T02:51:34.485Z,11.60
2022-12-11T02:54:02.238Z,12.00
2022-12-11T02:56:34.115Z,13.40
2022-12-11T02:59:07.054Z,13.60
2022-12-11T03:01:33.796Z,14.70
2022-12-11T03:04:00.581Z,15.00
2022-12-11T03:06:36.152Z,13.30
2022-12-11T03:09:04.928Z,12.80
2022-12-11T03:11:31.483Z,14.10
2022-12-11T03:13:59.180Z,13.00
2022-12-11T03:17:07.158Z,13.90
2022-12-11T03:19:41.477Z,12.60
2022-12-11T03:22:26.853Z,14.90
2022-12-11T03:25:00.769Z,13.80
2022-12-11T03:27:37.863Z,12.80
2022-12-11T03:30:16.140Z,14.60
2022-12-11T03:32:58.024Z,13.20
2022-12-11T03:35:37.067Z,14.50
2022-12-11T03:38:12.259Z,15.50
2022-12-11T03:40:42.453Z,16.20
2022-12-11T03:43:11.329Z,15.50
2022-12-11T03:45:40.038Z,18.30
2022-12-11T03:48:10.003Z,18.00
2022-12-11T03:50:37.124Z,18.10
2022-12-11T03:53:05.111Z,18.40
2022-12-11T03:55:33.509Z,21.00
2022-12-11T03:58:00.139Z,18.10
2022-12-11T04:00:27.054Z,18.30
2022-12-11T04:02:53.755Z,18.20
2022-12-11T04:05:20.298Z,18.10
2022-12-11T04:07:46.808Z,17.40
2022-12-11T04:10:13.294Z,17.20
2022-12-11T04:12:39.657Z,17.80
2022-12-11T04:15:06.463Z,17.00
2022-12-11T04:17:36.268Z,19.10
2022-12-11T04:20:03.894Z,16.40
2022-12-11T04:22:30.294Z,16.10
2022-12-11T04:24:56.797Z,17.00
2022-12-11T04:27:23.574Z,15.50
2022-12-11T04:29:50.182Z,15.90
2022-12-11T04:32:16.724Z,16.30
2022-12-11T04:34:43.267Z,18.10
2022-12-11T04:37:09.804Z,17.70
2022-12-11T04:39:36.252Z,18.10
2022-12-11T04:42:02.716Z,17.90
2022-12-11T04:44:29.220Z,17.90
2022-12-11T04:46:55.854Z,18.30
2022-12-11T04:49:22.304Z,18.60
2022-12-11T04:51:48.948Z,17.90
2022-12-11T04:54:15.630Z,17.10
2022-12-11T04:56:42.123Z,18.30
2022-12-11T04:59:08.561Z,20.00
2022-12-11T05:01:35.446Z,17.30
2022-12-11T05:04:02.017Z,17.70
2022-12-11T05:06:28.686Z,16.40
2022-12-11T05:08:55.326Z,15.00
2022-12-11T05:11:21.799Z,15.10
2022-12-11T05:13:48.307Z,12.90
2022-12-11T05:16:16.761Z,15.00
2022-12-11T05:18:43.836Z,15.20
2022-12-11T05:21:13.646Z,12.80
2022-12-11T05:23:41.051Z,13.80
2022-12-11T05:26:11.887Z,13.80
2022-12-11T05:28:39.385Z,14.10
2022-12-11T05:31:18.185Z,12.10
2022-12-11T05:33:46.669Z,13.70
2022-12-11T05:36:21.994Z,12.70
2022-12-11T05:38:49.116Z,13.50
2022-12-11T05:41:18.580Z,12.00
2022-12-11T05:43:45.148Z,11.30
2022-12-11T05:46:21.029Z,14.90
2022-12-11T05:48:50.080Z,14.30
2022-12-11T05:51:17.721Z,13.00
2022-12-11T05:53:45.384Z,12.90
2022-12-11T05:56:20.890Z,12.50
2022-12-11T05:58:48.615Z,12.50
2022-12-11T06:01:19.281Z,13.40
2022-12-11T06:03:45.797Z,21.70
2022-12-11T06:06:12.519Z,15.70
2022-12-11T06:08:38.938Z,29.40
2022-12-11T06:11:06.312Z,25.70
2022-12-11T06:13:33.632Z,30.10
2022-12-11T06:16:02.449Z,40.30
2022-12-11T06:18:29.614Z,14.10
2022-12-11T06:20:56.121Z,9.70
2022-12-11T06:23:23.545Z,12.40
2022-12-11T06:25:50.154Z,10.80
2022-12-11T06:28:17.088Z,10.90
2022-12-11T06:30:43.538Z,10.90
2022-12-11T06:33:10.077Z,11.60
2022-12-11T06:35:41.929Z,38.50
2022-12-11T06:38:09.680Z,19.40
2022-12-11T06:40:36.221Z,16.80
2022-12-11T06:43:02.643Z,15.70
2022-12-11T06:45:29.180Z,16.00
2022-12-11T06:47:55.703Z,19.60
2022-12-11T06:50:22.316Z,12.40
2022-12-11T06:52:48.838Z,21.40
2022-12-11T06:55:15.581Z,12.50
2022-12-11T06:57:42.222Z,12.50
2022-12-11T07:00:09.558Z,10.60
2022-12-11T07:02:36.109Z,12.70
2022-12-11T07:05:03.070Z,9.60
2022-12-11T07:07:29.611Z,10.50
2022-12-11T07:09:56.332Z,8.50
2022-12-11T07:12:22.894Z,13.80
2022-12-11T07:14:49.411Z,12.90
2022-12-11T07:17:16.135Z,11.10
2022-12-11T07:19:42.925Z,11.20
2022-12-11T07:22:09.466Z,10.20
2022-12-11T07:24:36.248Z,11.40
2022-12-11T07:27:02.735Z,12.20
2022-12-11T07:29:29.420Z,15.50
2022-12-11T07:31:56.274Z,21.20
2022-12-11T07:34:22.879Z,12.80
2022-12-11T07:36:49.328Z,17.50
2022-12-11T07:39:16.277Z,24.80
2022-12-11T07:41:42.920Z,13.40
2022-12-11T07:44:09.459Z,15.40
2022-12-11T07:46:36.069Z,15.90
2022-12-11T07:49:02.604Z,16.00
2022-12-11T07:51:34.898Z,11.30
2022-12-11T07:54:05.446Z,11.60
2022-12-11T07:56:32.592Z,11.40
2022-12-11T07:59:04.527Z,14.00
2022-12-11T08:01:33.694Z,12.00
2022-12-11T08:04:00.174Z,10.60
2022-12-11T08:06:29.294Z,11.00
2022-12-11T08:08:57.323Z,13.20
2022-12-11T08:11:24.640Z,11.60
2022-12-11T08:13:51.125Z,12.80
2022-12-11T08:16:18.571Z,10.40
2022-12-11T08:18:46.724Z,9.20
2022-12-11T08:21:16.559Z,10.20
2022-12-11T08:23:43.282Z,10.40
2022-12-11T08:26:30.812Z,9.60
2022-12-11T08:28:59.046Z,10.00
2022-12-11T08:31:25.841Z,10.20
2022-12-11T08:33:53.914Z,9.80
2022-12-11T08:36:22.533Z,10.80
2022-12-11T08:38:49.774Z,9.30
2022-12-11T08:41:19.476Z,9.40
2022-12-11T08:43:46.644Z,8.90
2022-12-11T08:46:14.176Z,10.20
2022-12-11T08:48:42.378Z,11.40
2022-12-11T08:51:12.873Z,11.50
2022-12-11T08:53:40.106Z,10.40
2022-12-11T08:56:09.548Z,12.30
2022-12-11T08:58:36.119Z,13.60
2022-12-11T09:01:10.778Z,11.00
2022-12-11T09:03:38.308Z,10.20
2022-12-11T09:06:06.599Z,10.00
2022-12-11T09:08:34.253Z,10.10
2022-12-11T09:11:10.324Z,9.50
2022-12-11T09:13:37.839Z,10.70
2022-12-11T09:16:09.716Z,10.10
2022-12-11T09:18:37.523Z,11.10
2022-12-11T09:21:10.433Z,10.80
2022-12-11T09:23:37.801Z,10.30
2022-12-11T09:26:06.144Z,12.70
2022-12-11T09:28:33.485Z,12.20
2022-12-11T09:31:00.222Z,10.50
2022-12-11T09:33:26.729Z,12.20
2022-12-11T09:36:00.902Z,11.70
2022-12-11T09:38:27.538Z,11.20
2022-12-11T09:40:55.021Z,11.30
2022-12-11T09:43:30.971Z,12.30
2022-12-11T09:46:00.795Z,12.00
2022-12-11T09:48:28.060Z,12.80
2022-12-11T09:50:55.605Z,10.90
2022-12-11T09:53:33.934Z,11.50
2022-12-11T09:56:16.848Z,15.20
2022-12-11T09:58:54.347Z,15.30
2022-12-11T10:01:30.051Z,14.10
2022-12-11T10:04:31.973Z,21.10
2022-12-11T10:09:42.254Z,16.70
2022-12-11T10:12:18.010Z,19.20
2022-12-11T10:15:03.824Z,23.90
2022-12-11T10:17:33.105Z,18.60
2022-12-11T10:20:38.276Z,26.40
2022-12-11T10:23:09.644Z,29.20
2022-12-11T10:25:40.757Z,16.00
2022-12-11T10:28:19.224Z,16.60
2022-12-11T10:30:59.570Z,19.60
2022-12-11T10:33:51.045Z,13.40
2022-12-11T10:36:25.480Z,14.20
2022-12-11T10:38:52.485Z,18.80
2022-12-11T10:41:33.133Z,16.90
2022-12-11T10:43:59.747Z,16.50
2022-12-11T10:46:29.100Z,11.70
2022-12-11T10:48:58.504Z,16.90
2022-12-11T10:51:32.489Z,11.30
2022-12-11T10:54:27.216Z,9.30
2022-12-11T10:56:55.208Z,11.30
2022-12-11T10:59:39.098Z,12.20
2022-12-11T11:02:18.574Z,34.30
2022-12-11T11:04:45.607Z,10.20
2022-12-11T11:07:15.632Z,10.40
2022-12-11T11:09:42.675Z,11.40
2022-12-11T11:12:25.061Z,12.60
2022-12-11T11:15:06.300Z,11.20
2022-12-11T11:17:51.129Z,9.80
2022-12-11T11:20:25.675Z,10.30
2022-12-11T11:23:04.945Z,9.10
2022-12-11T11:25:33.605Z,9.40
2022-12-11T11:28:03.505Z,10.30
2022-12-11T11:30:37.181Z,9.90
2022-12-11T11:33:17.768Z,9.80
2022-12-11T11:36:02.729Z,9.80
2022-12-11T11:38:37.618Z,11.30
2022-12-11T11:41:21.301Z,10.20
2022-12-11T11:43:59.254Z,10.60
2022-12-11T11:46:42.643Z,12.10
2022-12-11T11:49:34.477Z,14.30
2022-12-11T11:54:58.421Z,14.90
2022-12-11T11:57:41.959Z,14.40
2022-12-11T12:00:19.348Z,13.30
2022-12-11T12:02:46.792Z,13.40
2022-12-11T12:05:13.845Z,13.30
2022-12-11T12:08:14.476Z,13.60
2022-12-11T12:10:46.888Z,13.40
2022-12-11T12:16:56.376Z,12.00
2022-12-11T12:19:43.949Z,13.50
2022-12-11T12:22:25.633Z,15.50
2022-12-11T12:27:57.561Z,17.00
2022-12-11T12:30:24.464Z,14.60
2022-12-11T12:33:15.325Z,15.50
2022-12-11T12:36:06.643Z,14.60
2022-12-11T12:38:42.861Z,14.40
2022-12-11T12:41:16.932Z,12.80
2022-12-11T12:44:05.672Z,27.50
2022-12-11T12:46:49.744Z,18.40
2022-12-11T12:49:29.803Z,16.80
2022-12-11T12:51:57.184Z,18.70
2022-12-11T12:54:26.968Z,18.00
2022-12-11T12:56:54.238Z,17.20
2022-12-11T12:59:26.262Z,17.50
2022-12-11T13:01:58.859Z,17.50
2022-12-11T13:04:56.707Z,17.40
2022-12-11T13:07:27.581Z,17.80
2022-12-11T13:12:50.820Z,17.10
2022-12-11T13:15:30.233Z,16.70
2022-12-11T13:17:57.900Z,18.10
2022-12-11T13:20:31.157Z,16.90
2022-12-11T13:23:06.507Z,18.10
2022-12-11T13:26:05.344Z,17.20
2022-12-11T13:28:46.560Z,17.80
2022-12-11T13:31:16.380Z,16.70
2022-12-11T13:33:52.711Z,15.70
2022-12-11T13:36:35.029Z,17.70
2022-12-11T13:39:08.936Z,18.30
2022-12-11T13:41:38.135Z,19.00
2022-12-11T13:44:06.125Z,18.00
2022-12-11T13:46:36.694Z,19.60
2022-12-11T13:49:07.020Z,18.90
2022-12-11T13:51:34.763Z,22.20
2022-12-11T13:54:17.824Z,23.40
2022-12-11T13:57:16.728Z,23.00
2022-12-11T13:59:48.831Z,23.80
2022-12-11T14:02:26.435Z,22.90
2022-12-11T14:04:57.761Z,24.50
2022-12-11T14:07:31.511Z,27.30
2022-12-11T14:10:06.234Z,27.60
2022-12-11T14:12:32.664Z,35.20
2022-12-11T14:15:01.873Z,30.00
2022-12-11T14:17:31.633Z,31.60
2022-12-11T14:20:00.741Z,24.10
2022-12-11T14:22:29.745Z,23.00
2022-12-11T14:24:59.393Z,25.20
2022-12-11T14:27:27.382Z,27.70
2022-12-11T14:29:54.892Z,29.70
2022-12-11T14:32:44.755Z,22.00
2022-12-11T14:35:32.877Z,23.80
2022-12-11T14:38:10.768Z,28.70
2022-12-11T14:40:43.455Z,31.60
2022-12-11T14:43:18.389Z,28.70
2022-12-11T14:45:48.358Z,23.30
2022-12-11T14:48:23.753Z,21.50
2022-12-11T14:50:55.718Z,22.70
2022-12-11T14:53:27.688Z,20.50
2022-12-11T14:55:57.037Z,20.50
2022-12-11T14:58:26.515Z,21.70
2022-12-11T15:01:04.794Z,23.10
2022-12-11T15:03:36.374Z,29.90
2022-12-11T15:08:37.106Z,17.90
2022-12-11T15:11:09.201Z,19.40
2022-12-11T15:13:39.154Z,20.50
2022-12-11T15:16:07.804Z,26.90
2022-12-11T15:18:39.241Z,28.60
2022-12-11T15:21:09.594Z,22.00
2022-12-11T15:23:44.955Z,25.40
2022-12-11T15:26:11.730Z,19.80
2022-12-11T15:28:39.437Z,22.30
2022-12-11T15:31:22.208Z,20.60
2022-12-11T15:33:48.713Z,21.30
2022-12-11T15:36:30.372Z,19.70
2022-12-11T15:38:57.868Z,18.20
2022-12-11T15:41:25.571Z,19.20
2022-12-11T15:43:59.092Z,19.30
2022-12-11T15:46:26.292Z,18.70
2022-12-11T15:48:53.150Z,19.40
2022-12-11T15:51:19.663Z,18.80
2022-12-11T15:53:46.115Z,21.20
2022-12-11T15:56:16.592Z,19.90
2022-12-11T15:58:45.344Z,22.40
2022-12-11T16:01:11.937Z,22.10
2022-12-11T16:03:38.521Z,21.30
2022-12-11T16:06:05.371Z,23.40
2022-12-11T16:08:31.855Z,23.10
2022-12-11T16:10:58.453Z,23.60
2022-12-11T16:13:24.899Z,25.50
2022-12-11T16:15:51.742Z,26.50
2022-12-11T16:18:21.337Z,26.80
2022-12-11T16:20:49.014Z,37.50
2022-12-11T16:23:16.039Z,26.80
2022-12-11T16:25:43.663Z,28.50
2022-12-11T16:28:13.501Z,22.60
2022-12-11T16:30:40.843Z,27.10
2022-12-11T16:33:12.483Z,29.70
2022-12-11T16:35:40.696Z,28.20
2022-12-11T16:38:07.278Z,25.30
2022-12-11T16:40:33.684Z,23.20
2022-12-11T16:43:00.128Z,26.50
2022-12-11T16:45:26.873Z,36.80
2022-12-11T16:47:53.952Z,31.00
2022-12-11T16:50:20.492Z,32.50
2022-12-11T16:52:47.255Z,32.10
2022-12-11T16:55:14.489Z,22.90
2022-12-11T16:57:42.161Z,25.00
2022-12-11T17:00:11.179Z,25.00
2022-12-11T17:02:37.934Z,26.80
2022-12-11T17:05:05.259Z,24.80
2022-12-11T17:07:32.926Z,22.20
2022-12-11T17:09:59.508Z,20.60
2022-12-11T17:12:26.316Z,23.90
2022-12-11T17:14:53.044Z,24.70
2022-12-11T17:17:19.602Z,25.90
2022-12-11T17:19:46.144Z,27.30
2022-12-11T17:22:12.683Z,26.60
2022-12-11T17:24:39.322Z,24.60
2022-12-11T17:27:05.864Z,25.00
2022-12-11T17:29:32.275Z,23.30
2022-12-11T17:31:58.945Z,26.40
2022-12-11T17:34:25.586Z,26.60
2022-12-11T17:36:52.126Z,26.30
2022-12-11T17:39:18.566Z,28.00
2022-12-11T17:41:45.204Z,27.90
2022-12-11T17:44:13.090Z,26.80
2022-12-11T17:46:39.780Z,26.20
2022-12-11T17:49:06.666Z,28.60
2022-12-11T17:51:33.308Z,34.80
2022-12-11T17:53:59.774Z,40.20
2022-12-11T17:56:26.905Z,53.90
2022-12-11T17:58:53.453Z,67.90
2022-12-11T18:01:20.287Z,57.70
2022-12-11T18:03:47.501Z,35.10
2022-12-11T18:06:15.535Z,42.90
2022-12-11T18:08:43.531Z,42.60
2022-12-11T18:11:20.706Z,53.30
2022-12-11T18:13:48.830Z,32.20
2022-12-11T18:16:19.236Z,37.50
2022-12-11T18:18:47.686Z,37.70
2022-12-11T18:21:17.908Z,36.30
2022-12-11T18:23:45.269Z,29.30
2022-12-11T18:26:11.911Z,28.00
2022-12-11T18:28:38.548Z,24.00
2022-12-11T18:31:05.212Z,25.60
2022-12-11T18:33:32.038Z,23.10
2022-12-11T18:35:58.542Z,25.10
2022-12-11T18:38:24.938Z,23.50
2022-12-11T18:40:51.652Z,24.30
2022-12-11T18:43:18.190Z,26.50
2022-12-11T18:45:44.705Z,26.40
2022-12-11T18:48:12.308Z,26.00
2022-12-11T18:50:46.929Z,27.00
2022-12-11T18:53:13.777Z,23.60
2022-12-11T18:55:45.130Z,22.60
2022-12-11T18:58:14.044Z,22.90
2022-12-11T19:00:42.264Z,23.20
2022-12-11T19:03:09.997Z,25.80
2022-12-11T19:05:36.836Z,25.10
2022-12-11T19:08:03.699Z,24.00
2022-12-11T19:10:30.432Z,22.20
2022-12-11T19:12:57.151Z,23.30
2022-12-11T19:15:24.239Z,21.30
2022-12-11T19:17:51.057Z,19.20
2022-12-11T19:20:48.430Z,20.10
2022-12-11T19:23:05.428Z,21.50
2022-12-11T19:25:32.732Z,21.20
2022-12-11T19:27:59.326Z,22.50
2022-12-11T19:30:25.967Z,22.90
2022-12-11T19:32:52.450Z,21.60
2022-12-11T19:35:19.046Z,25.10
2022-12-11T19:37:45.894Z,26.20
2022-12-11T19:40:12.359Z,25.50
2022-12-11T19:42:38.977Z,24.00
2022-12-11T19:45:06.229Z,24.00
2022-12-11T19:47:32.763Z,26.90
2022-12-11T19:50:00.026Z,21.40
2022-12-11T19:52:26.573Z,23.60
2022-12-11T19:54:53.520Z,22.60
2022-12-11T19:57:20.259Z,21.90
2022-12-11T19:59:46.896Z,19.80
2022-12-11T20:02:13.466Z,19.80
2022-12-11T20:04:40.093Z,19.90
2022-12-11T20:07:06.779Z,19.00
2022-12-11T20:09:33.466Z,18.80
2022-12-11T20:11:59.926Z,18.90
2022-12-11T20:14:26.755Z,19.10
2022-12-11T20:17:12.468Z,19.00
2022-12-11T20:19:40.413Z,20.50
2022-12-11T20:22:07.053Z,19.60
2022-12-11T20:24:34.000Z,20.10
2022-12-11T20:27:00.538Z,20.10
2022-12-11T20:29:27.286Z,20.60
2022-12-11T20:31:53.874Z,21.00
2022-12-11T20:34:20.388Z,23.50
2022-12-11T20:36:48.545Z,20.70
2022-12-11T20:39:15.084Z,22.60
2022-12-11T20:41:42.133Z,22.20
2022-12-11T20:44:08.769Z,24.70
2022-12-11T20:46:35.412Z,28.50
2022-12-11T20:49:02.052Z,32.30
2022-12-11T20:51:28.698Z,33.50
2022-12-11T20:53:55.887Z,33.90
2022-12-11T20:56:22.594Z,33.20
2022-12-11T20:58:49.482Z,31.60
2022-12-11T21:01:21.911Z,28.50
2022-12-11T21:03:48.557Z,35.00
2022-12-11T21:06:22.369Z,32.40
2022-12-11T21:08:49.214Z,30.90
2022-12-11T21:11:16.075Z,29.80
2022-12-11T21:13:42.701Z,28.60
2022-12-11T21:16:10.428Z,29.80
2022-12-11T21:18:38.441Z,31.30
2022-12-11T21:21:05.902Z,29.40
2022-12-11T21:23:33.284Z,27.30
2022-12-11T21:26:00.626Z,23.00
2022-12-11T21:28:33.515Z,23.40
2022-12-11T21:31:05.568Z,23.50
2022-12-11T21:33:32.636Z,24.40
2022-12-11T21:36:00.523Z,22.10
2022-12-11T21:38:28.352Z,19.90
2022-12-11T21:40:57.750Z,20.70
2022-12-11T21:43:24.550Z,19.80
2022-12-11T21:46:00.850Z,18.30
2022-12-11T21:48:29.384Z,19.10
2022-12-11T21:50:56.129Z,19.20
2022-12-11T21:53:22.762Z,19.20
2022-12-11T21:55:49.249Z,17.00
2022-12-11T21:58:15.747Z,18.00
2022-12-11T22:00:42.372Z,19.70
2022-12-11T22:03:08.859Z,19.70
2022-12-11T22:05:35.361Z,19.90
2022-12-11T22:08:02.045Z,19.30
2022-12-11T22:10:30.924Z,20.20
2022-12-11T22:12:57.372Z,21.00
2022-12-11T22:15:23.876Z,20.50
2022-12-11T22:17:51.920Z,20.10
2022-12-11T22:20:18.496Z,19.90
2022-12-11T22:22:45.028Z,20.60
2022-12-11T22:25:11.975Z,19.60
2022-12-11T22:27:38.721Z,21.80
2022-12-11T22:30:05.782Z,20.90
2022-12-11T22:32:32.231Z,18.60
2022-12-11T22:34:58.874Z,19.80
2022-12-11T22:37:25.808Z,18.30
2022-12-11T22:39:52.343Z,17.90
2022-12-11T22:42:18.761Z,19.20
2022-12-11T22:44:45.296Z,18.20
2022-12-11T22:47:13.466Z,17.70
2022-12-11T22:49:39.931Z,19.40
2022-12-11T22:52:06.469Z,19.20
2022-12-11T22:54:34.416Z,18.90
2022-12-11T22:57:00.830Z,18.60
2022-12-11T22:59:27.267Z,19.20
2022-12-11T23:01:53.858Z,18.80
2022-12-11T23:04:20.406Z,19.30
2022-12-11T23:06:47.162Z,21.30
2022-12-11T23:09:14.604Z,20.70
2022-12-11T23:11:41.146Z,26.60
2022-12-11T23:14:10.964Z,25.10
2022-12-11T23:16:37.542Z,21.30
2022-12-11T23:19:04.248Z,23.70
2022-12-11T23:21:30.793Z,22.70
2022-12-11T23:23:57.940Z,19.90
2022-12-11T23:26:24.725Z,22.00
2022-12-11T23:28:51.354Z,22.90
2022-12-11T23:31:19.731Z,24.20
2022-12-11T23:33:46.249Z,23.00
2022-12-11T23:36:13.405Z,23.80
2022-12-11T23:38:40.723Z,23.10
2022-12-11T23:41:09.975Z,24.10
2022-12-11T23:43:37.928Z,24.50
2022-12-11T23:46:10.429Z,26.20
2022-12-11T23:48:37.160Z,24.80
2022-12-11T23:51:05.891Z,27.10
2022-12-11T23:54:16.551Z,27.10
2022-12-11T23:57:27.273Z,24.50
